This is the latest recevied weather packets stored in our database for station/object K6GKS. If no packets are shown the sender has not sent any weather packets the latest 10 day(s).
| Time | Temp. | Humidity | Pressure | Rain* | Wind** | Luminosity | Snow |
|---|---|---|---|---|---|---|---|
| 1787504763 | 24.44° C | 53% | 1013.1 hPa | 0 mm | - | - | - |
| 1787504583 | 23.89° C | 53% | 1013.1 hPa | 0 mm | - | - | - |
| 1787504403 | 23.89° C | 54% | 1012.9 hPa | 0 mm | - | - | - |
| 1787504223 | 23.89° C | 53% | 1013 hPa | 0 mm | - | - | - |
| 1787504041 | 24.44° C | 52% | 1013.1 hPa | 0 mm | - | - | - |
| 1787503862 | 24.44° C | 52% | 1013.1 hPa | 0 mm | - | - | - |
| 1787503682 | 25° C | 51% | 1013.1 hPa | 0 mm | - | - | - |
| 1787503503 | 25° C | 52% | 1013.1 hPa | 0 mm | - | - | - |
| 1787503323 | 24.44° C | 54% | 1012.9 hPa | 0 mm | - | - | - |
| 1787503142 | 23.89° C | 56% | 1013.2 hPa | 0 mm | - | - | - |
| 1787502962 | 23.33° C | 58% | 1013 hPa | 0 mm | - | - | - |
| 1787502782 | 22.22° C | 61% | 1013 hPa | 0 mm | - | - | - |
| 1787502603 | 21.67° C | 63% | 1013.1 hPa | 0 mm | - | - | - |
| 1787502422 | 21.11° C | 64% | 1013 hPa | 0 mm | - | - | - |
| 1787502242 | 20.56° C | 66% | 1013 hPa | 0 mm | - | - | - |
| 1787502061 | 20.56° C | 66% | 1013.1 hPa | 0 mm | - | - | - |
| 1787501882 | 20.56° C | 65% | 1013.1 hPa | 0 mm | - | - | - |
| 1787501702 | 20.56° C | 65% | 1013.1 hPa | 0 mm | - | - | - |
| 1787501523 | 21.11° C | 64% | 1012.9 hPa | 0 mm | - | - | - |
| 1787501342 | 22.22° C | 60% | 1013.2 hPa | 0 mm | - | - | - |
| 1787501163 | 22.22° C | 61% | 1013 hPa | 0 mm | - | - | - |
| 1787500982 | 21.67° C | 63% | 1013.1 hPa | 0 mm | - | - | - |
| 1787500803 | 21.67° C | 64% | 1013 hPa | 0 mm | - | - | - |
| 1787500622 | 21.67° C | 63% | 1013.1 hPa | 0 mm | - | - | - |
| 1787500442 | 20.56° C | 65% | 1013.2 hPa | 0 mm | - | - | - |
* Rain latest hour (hover to see other rain measurements)
** Current wind speed in m/s (hover to see current wind gust speed)